sensor_id;sensor_type;location;lat;lon;timestamp;pressure;altitude;pressure_sealevel;temperature;humidity
61324;BME280;47203;48.428;11.974;2023-02-14T00:01:33;98676.06;;;8.62;46.36
61324;BME280;47203;48.428;11.974;2023-02-14T00:03:38;98676.25;;;8.60;46.20
61324;BME280;47203;48.428;11.974;2023-02-14T00:05:43;98675.84;;;8.56;46.32
61324;BME280;47203;48.428;11.974;2023-02-14T00:07:47;98668.75;;;8.57;46.02
61324;BME280;47203;48.428;11.974;2023-02-14T00:09:55;98669.19;;;8.54;46.02
61324;BME280;47203;48.428;11.974;2023-02-14T00:11:59;98661.72;;;8.51;46.46
61324;BME280;47203;48.428;11.974;2023-02-14T00:14:04;98662.13;;;8.48;46.27
61324;BME280;47203;48.428;11.974;2023-02-14T00:16:21;98671.38;;;8.44;46.47
61324;BME280;47203;48.428;11.974;2023-02-14T00:18:26;98671.78;;;8.41;46.55
61324;BME280;47203;48.428;11.974;2023-02-14T00:20:51;98674.81;;;8.37;46.51
61324;BME280;47203;48.428;11.974;2023-02-14T00:22:56;98680.47;;;8.34;46.69
61324;BME280;47203;48.428;11.974;2023-02-14T00:25:04;98685.13;;;8.32;46.60
61324;BME280;47203;48.428;11.974;2023-02-14T00:27:08;98677.03;;;8.34;46.62
61324;BME280;47203;48.428;11.974;2023-02-14T00:29:14;98675.00;;;8.36;46.41
61324;BME280;47203;48.428;11.974;2023-02-14T00:31:19;98683.28;;;8.39;46.62
61324;BME280;47203;48.428;11.974;2023-02-14T00:33:23;98681.88;;;8.44;46.59
61324;BME280;47203;48.428;11.974;2023-02-14T00:35:28;98683.91;;;8.48;46.36
61324;BME280;47203;48.428;11.974;2023-02-14T00:37:33;98684.34;;;8.52;46.12
61324;BME280;47203;48.428;11.974;2023-02-14T00:39:37;98678.06;;;8.53;46.18
61324;BME280;47203;48.428;11.974;2023-02-14T00:41:44;98676.25;;;8.53;46.02
61324;BME280;47203;48.428;11.974;2023-02-14T00:43:51;98667.78;;;8.51;46.06
61324;BME280;47203;48.428;11.974;2023-02-14T00:45:57;98667.34;;;8.41;45.90
61324;BME280;47203;48.428;11.974;2023-02-14T00:48:02;98674.78;;;8.31;46.36
61324;BME280;47203;48.428;11.974;2023-02-14T00:50:07;98678.81;;;8.20;46.31
61324;BME280;47203;48.428;11.974;2023-02-14T00:52:11;98681.47;;;8.13;46.42
61324;BME280;47203;48.428;11.974;2023-02-14T00:54:16;98677.81;;;8.08;46.52
61324;BME280;47203;48.428;11.974;2023-02-14T00:56:21;98677.81;;;8.08;46.85
61324;BME280;47203;48.428;11.974;2023-02-14T00:58:28;98673.16;;;8.10;46.67
61324;BME280;47203;48.428;11.974;2023-02-14T01:00:33;98676.00;;;8.15;46.42
61324;BME280;47203;48.428;11.974;2023-02-14T01:02:37;98671.97;;;8.19;46.64
61324;BME280;47203;48.428;11.974;2023-02-14T01:04:42;98680.25;;;8.23;46.49
61324;BME280;47203;48.428;11.974;2023-02-14T01:06:46;98676.84;;;8.22;46.26
61324;BME280;47203;48.428;11.974;2023-02-14T01:08:51;98673.19;;;8.16;46.34
61324;BME280;47203;48.428;11.974;2023-02-14T01:10:55;98677.22;;;8.12;46.34
61324;BME280;47203;48.428;11.974;2023-02-14T01:13:00;98683.06;;;8.08;46.54
61324;BME280;47203;48.428;11.974;2023-02-14T01:15:08;98685.66;;;8.01;46.71
61324;BME280;47203;48.428;11.974;2023-02-14T01:17:12;98686.84;;;7.98;46.83
61324;BME280;47203;48.428;11.974;2023-02-14T01:19:17;98682.03;;;8.02;46.79
61324;BME280;47203;48.428;11.974;2023-02-14T01:21:22;98690.09;;;8.07;46.53
61324;BME280;47203;48.428;11.974;2023-02-14T01:23:29;98682.66;;;8.11;46.55
61324;BME280;47203;48.428;11.974;2023-02-14T01:25:35;98686.09;;;8.11;46.42
61324;BME280;47203;48.428;11.974;2023-02-14T01:27:39;98679.41;;;8.09;46.51
61324;BME280;47203;48.428;11.974;2023-02-14T01:29:44;98679.00;;;8.05;46.30
61324;BME280;47203;48.428;11.974;2023-02-14T01:31:51;98684.25;;;8.05;46.52
61324;BME280;47203;48.428;11.974;2023-02-14T01:33:58;98691.34;;;8.04;46.55
61324;BME280;47203;48.428;11.974;2023-02-14T01:36:03;98691.34;;;8.04;46.24
61324;BME280;47203;48.428;11.974;2023-02-14T01:38:08;98685.47;;;8.02;46.39
61324;BME280;47203;48.428;11.974;2023-02-14T01:40:14;98688.09;;;7.96;46.51
61324;BME280;47203;48.428;11.974;2023-02-14T01:42:18;98695.72;;;7.91;46.54
61324;BME280;47203;48.428;11.974;2023-02-14T01:46:43;98695.13;;;7.89;46.51
61324;BME280;47203;48.428;11.974;2023-02-14T01:48:51;98697.94;;;7.94;46.65
61324;BME280;47203;48.428;11.974;2023-02-14T01:50:57;98691.09;;;7.99;46.51
61324;BME280;47203;48.428;11.974;2023-02-14T01:53:03;98701.81;;;8.04;46.44
61324;BME280;47203;48.428;11.974;2023-02-14T01:55:11;98701.63;;;8.06;46.35
61324;BME280;47203;48.428;11.974;2023-02-14T01:57:18;98703.41;;;8.06;46.18
61324;BME280;47203;48.428;11.974;2023-02-14T01:59:25;98692.53;;;8.02;46.08
61324;BME280;47203;48.428;11.974;2023-02-14T02:01:31;98692.94;;;7.99;46.64
61324;BME280;47203;48.428;11.974;2023-02-14T02:03:36;98684.44;;;7.97;46.26
61324;BME280;47203;48.428;11.974;2023-02-14T02:05:46;98695.13;;;7.95;46.59
61324;BME280;47203;48.428;11.974;2023-02-14T02:07:51;98693.69;;;7.93;46.42
61324;BME280;47203;48.428;11.974;2023-02-14T02:10:02;98694.94;;;7.90;46.70
61324;BME280;47203;48.428;11.974;2023-02-14T02:12:07;98697.34;;;7.92;46.49
61324;BME280;47203;48.428;11.974;2023-02-14T02:14:12;98689.88;;;7.95;46.47
61324;BME280;47203;48.428;11.974;2023-02-14T02:16:21;98683.25;;;7.99;46.44
61324;BME280;47203;48.428;11.974;2023-02-14T02:18:32;98677.19;;;8.06;46.45
61324;BME280;47203;48.428;11.974;2023-02-14T02:25:33;98672.75;;;8.13;46.39
61324;BME280;47203;48.428;11.974;2023-02-14T02:27:50;98677.00;;;8.14;46.05
61324;BME280;47203;48.428;11.974;2023-02-14T02:37:11;98657.00;;;7.99;46.28
61324;BME280;47203;48.428;11.974;2023-02-14T02:39:27;98657.81;;;7.93;46.53
61324;BME280;47203;48.428;11.974;2023-02-14T02:41:40;98652.34;;;7.81;46.49
61324;BME280;47203;48.428;11.974;2023-02-14T02:43:51;98656.34;;;7.71;46.62
61324;BME280;47203;48.428;11.974;2023-02-14T02:45:58;98646.06;;;7.62;46.71
61324;BME280;47203;48.428;11.974;2023-02-14T02:48:33;98646.81;;;7.56;46.76
61324;BME280;47203;48.428;11.974;2023-02-14T02:50:40;98653.28;;;7.54;47.06
61324;BME280;47203;48.428;11.974;2023-02-14T02:53:03;98653.09;;;7.55;47.09
61324;BME280;47203;48.428;11.974;2023-02-14T02:55:13;98658.13;;;7.57;47.07
61324;BME280;47203;48.428;11.974;2023-02-14T02:57:21;98654.47;;;7.58;46.94
61324;BME280;47203;48.428;11.974;2023-02-14T02:59:26;98662.97;;;7.60;47.05
61324;BME280;47203;48.428;11.974;2023-02-14T03:01:33;98666.00;;;7.63;46.88
61324;BME280;47203;48.428;11.974;2023-02-14T03:03:39;98662.78;;;7.68;47.03
61324;BME280;47203;48.428;11.974;2023-02-14T03:06:09;98660.78;;;7.70;46.90
61324;BME280;47203;48.428;11.974;2023-02-14T03:08:17;98668.44;;;7.72;46.55
61324;BME280;47203;48.428;11.974;2023-02-14T03:10:22;98661.19;;;7.67;46.76
61324;BME280;47203;48.428;11.974;2023-02-14T03:12:42;98659.34;;;7.61;46.72
61324;BME280;47203;48.428;11.974;2023-02-14T03:14:50;98660.75;;;7.57;46.63
61324;BME280;47203;48.428;11.974;2023-02-14T03:17:00;98664.97;;;7.58;46.98
61324;BME280;47203;48.428;11.974;2023-02-14T03:19:17;98654.47;;;7.58;46.73
61324;BME280;47203;48.428;11.974;2023-02-14T03:21:25;98663.75;;;7.54;46.76
61324;BME280;47203;48.428;11.974;2023-02-14T03:23:37;98665.13;;;7.43;46.65
61324;BME280;47203;48.428;11.974;2023-02-14T03:25:44;98668.13;;;7.33;46.96
61324;BME280;47203;48.428;11.974;2023-02-14T03:27:53;98669.50;;;7.29;47.18
61324;BME280;47203;48.428;11.974;2023-02-14T03:30:00;98661.44;;;7.30;47.24
61324;BME280;47203;48.428;11.974;2023-02-14T03:32:07;98663.03;;;7.31;46.86
61324;BME280;47203;48.428;11.974;2023-02-14T03:34:16;98663.63;;;7.27;47.24
61324;BME280;47203;48.428;11.974;2023-02-14T03:36:25;98664.84;;;7.24;46.84
61324;BME280;47203;48.428;11.974;2023-02-14T03:38:33;98664.84;;;7.24;47.19
61324;BME280;47203;48.428;11.974;2023-02-14T03:40:46;98651.94;;;7.23;46.97
61324;BME280;47203;48.428;11.974;2023-02-14T03:42:57;98651.31;;;7.21;47.23
61324;BME280;47203;48.428;11.974;2023-02-14T03:45:06;98656.97;;;7.18;46.98
61324;BME280;47203;48.428;11.974;2023-02-14T03:47:11;98655.53;;;7.15;47.15
61324;BME280;47203;48.428;11.974;2023-02-14T03:49:18;98654.72;;;7.14;46.98
61324;BME280;47203;48.428;11.974;2023-02-14T03:51:25;98654.53;;;7.16;47.19
61324;BME280;47203;48.428;11.974;2023-02-14T03:53:35;98651.13;;;7.15;47.01
61324;BME280;47203;48.428;11.974;2023-02-14T03:55:43;98665.78;;;7.10;47.34
61324;BME280;47203;48.428;11.974;2023-02-14T03:57:54;98660.50;;;7.03;47.39
61324;BME280;47203;48.428;11.974;2023-02-14T04:00:02;98655.22;;;6.96;47.41
61324;BME280;47203;48.428;11.974;2023-02-14T04:02:12;98654.19;;;6.91;47.29
61324;BME280;47203;48.428;11.974;2023-02-14T04:04:19;98655.16;;;6.83;47.31
61324;BME280;47203;48.428;11.974;2023-02-14T04:06:24;98658.16;;;6.80;47.47
61324;BME280;47203;48.428;11.974;2023-02-14T04:08:29;98656.53;;;6.79;47.33
61324;BME280;47203;48.428;11.974;2023-02-14T04:10:34;98656.16;;;6.82;47.53
61324;BME280;47203;48.428;11.974;2023-02-14T04:12:40;98658.41;;;6.85;47.71
61324;BME280;47203;48.428;11.974;2023-02-14T04:14:47;98660.81;;;6.87;47.59
61324;BME280;47203;48.428;11.974;2023-02-14T04:16:52;98664.44;;;6.86;47.55
61324;BME280;47203;48.428;11.974;2023-02-14T04:19:09;98659.44;;;6.91;47.59
61324;BME280;47203;48.428;11.974;2023-02-14T04:21:26;98660.28;;;6.98;47.32
61324;BME280;47203;48.428;11.974;2023-02-14T04:23:30;98656.88;;;7.04;47.21
61324;BME280;47203;48.428;11.974;2023-02-14T04:25:34;98653.44;;;7.04;47.10
61324;BME280;47203;48.428;11.974;2023-02-14T04:27:43;98658.06;;;7.02;47.01
61324;BME280;47203;48.428;11.974;2023-02-14T04:29:50;98662.31;;;7.03;47.04
61324;BME280;47203;48.428;11.974;2023-02-14T04:31:55;98648.84;;;7.06;47.13
61324;BME280;47203;48.428;11.974;2023-02-14T04:34:00;98646.41;;;7.04;47.21
61324;BME280;47203;48.428;11.974;2023-02-14T04:36:05;98651.41;;;6.99;47.09
61324;BME280;47203;48.428;11.974;2023-02-14T04:38:09;98637.09;;;6.95;47.24
61324;BME280;47203;48.428;11.974;2023-02-14T04:40:14;98633.66;;;6.94;47.35
61324;BME280;47203;48.428;11.974;2023-02-14T04:42:19;98637.28;;;6.93;47.24
61324;BME280;47203;48.428;11.974;2023-02-14T04:44:24;98641.13;;;6.91;47.24
61324;BME280;47203;48.428;11.974;2023-02-14T04:46:31;98634.63;;;6.87;47.29
61324;BME280;47203;48.428;11.974;2023-02-14T04:48:36;98630.34;;;6.79;47.50
61324;BME280;47203;48.428;11.974;2023-02-14T04:50:40;98629.53;;;6.72;47.29
61324;BME280;47203;48.428;11.974;2023-02-14T04:52:45;98633.13;;;6.71;47.58
61324;BME280;47203;48.428;11.974;2023-02-14T04:54:49;98634.75;;;6.72;47.57
61324;BME280;47203;48.428;11.974;2023-02-14T04:56:54;98631.31;;;6.71;47.62
61324;BME280;47203;48.428;11.974;2023-02-14T04:58:59;98637.56;;;6.70;47.40
61324;BME280;47203;48.428;11.974;2023-02-14T05:01:03;98635.13;;;6.69;47.38
61324;BME280;47203;48.428;11.974;2023-02-14T05:03:10;98636.94;;;6.68;47.63
61324;BME280;47203;48.428;11.974;2023-02-14T05:05:15;98637.72;;;6.69;47.68
61324;BME280;47203;48.428;11.974;2023-02-14T05:07:19;98643.75;;;6.62;47.54
61324;BME280;47203;48.428;11.974;2023-02-14T05:09:24;98652.97;;;6.58;47.71
61324;BME280;47203;48.428;11.974;2023-02-14T05:11:30;98647.13;;;6.56;47.56
61324;BME280;47203;48.428;11.974;2023-02-14T05:13:34;98635.81;;;6.49;47.63
61324;BME280;47203;48.428;11.974;2023-02-14T05:15:39;98635.94;;;6.41;47.69
61324;BME280;47203;48.428;11.974;2023-02-14T05:17:43;98650.41;;;6.37;47.78
61324;BME280;47203;48.428;11.974;2023-02-14T05:19:50;98647.22;;;6.41;47.69
61324;BME280;47203;48.428;11.974;2023-02-14T05:21:55;98635.19;;;6.47;47.52
61324;BME280;47203;48.428;11.974;2023-02-14T05:23:59;98629.81;;;6.55;47.84
61324;BME280;47203;48.428;11.974;2023-02-14T05:26:04;98628.88;;;6.63;47.62
61324;BME280;47203;48.428;11.974;2023-02-14T05:28:09;98618.81;;;6.67;47.48
61324;BME280;47203;48.428;11.974;2023-02-14T05:30:14;98630.47;;;6.64;47.48
61324;BME280;47203;48.428;11.974;2023-02-14T05:32:18;98629.22;;;6.60;47.57
61324;BME280;47203;48.428;11.974;2023-02-14T05:34:23;98624.75;;;6.54;47.37
61324;BME280;47203;48.428;11.974;2023-02-14T05:36:30;98625.91;;;6.44;47.49
61324;BME280;47203;48.428;11.974;2023-02-14T05:38:35;98636.13;;;6.39;47.82
61324;BME280;47203;48.428;11.974;2023-02-14T05:40:39;98640.56;;;6.39;47.69
61324;BME280;47203;48.428;11.974;2023-02-14T05:42:44;98635.94;;;6.41;47.51
61324;BME280;47203;48.428;11.974;2023-02-14T05:44:49;98642.97;;;6.40;47.44
61324;BME280;47203;48.428;11.974;2023-02-14T05:46:53;98639.56;;;6.40;47.83
61324;BME280;47203;48.428;11.974;2023-02-14T05:48:58;98639.38;;;6.41;47.73
61324;BME280;47203;48.428;11.974;2023-02-14T05:51:03;98643.59;;;6.42;47.51
61324;BME280;47203;48.428;11.974;2023-02-14T05:53:10;98635.94;;;6.41;47.53
61324;BME280;47203;48.428;11.974;2023-02-14T05:55:15;98633.31;;;6.41;47.78
61324;BME280;47203;48.428;11.974;2023-02-14T05:57:19;98636.56;;;6.43;47.71
61324;BME280;47203;48.428;11.974;2023-02-14T05:59:23;98640.63;;;6.45;47.59
61324;BME280;47203;48.428;11.974;2023-02-14T06:01:28;98639.78;;;6.45;47.50
61324;BME280;47203;48.428;11.974;2023-02-14T06:03:33;98642.41;;;6.45;47.34
61324;BME280;47203;48.428;11.974;2023-02-14T06:05:37;98635.56;;;6.44;47.72
61324;BME280;47203;48.428;11.974;2023-02-14T06:07:42;98631.16;;;6.44;47.68
61324;BME280;47203;48.428;11.974;2023-02-14T06:09:53;98646.25;;;6.49;47.51
61324;BME280;47203;48.428;11.974;2023-02-14T06:11:57;98647.31;;;6.55;47.51
61324;BME280;47203;48.428;11.974;2023-02-14T06:14:02;98647.72;;;6.58;47.38
61324;BME280;47203;48.428;11.974;2023-02-14T06:16:07;98655.03;;;6.63;47.38
61324;BME280;47203;48.428;11.974;2023-02-14T06:18:11;98659.50;;;6.69;47.25
61324;BME280;47203;48.428;11.974;2023-02-14T06:20:16;98653.50;;;6.75;47.31
61324;BME280;47203;48.428;11.974;2023-02-14T06:22:20;98660.38;;;6.83;47.14
61324;BME280;47203;48.428;11.974;2023-02-14T06:24:25;98658.59;;;6.90;47.14
61324;BME280;47203;48.428;11.974;2023-02-14T06:26:32;98656.25;;;6.95;46.75
61324;BME280;47203;48.428;11.974;2023-02-14T06:28:37;98657.66;;;6.98;46.86
61324;BME280;47203;48.428;11.974;2023-02-14T06:30:41;98659.06;;;7.01;46.88
61324;BME280;47203;48.428;11.974;2023-02-14T06:32:46;98664.31;;;7.01;46.65
61324;BME280;47203;48.428;11.974;2023-02-14T06:34:50;98654.03;;;6.99;46.61
61324;BME280;47203;48.428;11.974;2023-02-14T06:36:55;98658.47;;;6.98;46.75
61324;BME280;47203;48.428;11.974;2023-02-14T06:38:59;98666.50;;;6.97;47.01
61324;BME280;47203;48.428;11.974;2023-02-14T06:41:05;98658.66;;;6.97;47.04
61324;BME280;47203;48.428;11.974;2023-02-14T06:43:12;98666.50;;;6.97;47.03
61324;BME280;47203;48.428;11.974;2023-02-14T06:45:17;98666.72;;;6.95;46.97
61324;BME280;47203;48.428;11.974;2023-02-14T06:47:21;98662.06;;;6.97;47.09
61324;BME280;47203;48.428;11.974;2023-02-14T06:49:26;98656.84;;;6.97;46.86
61324;BME280;47203;48.428;11.974;2023-02-14T06:51:30;98664.88;;;6.96;46.71
61324;BME280;47203;48.428;11.974;2023-02-14T06:53:35;98665.88;;;6.95;47.01
61324;BME280;47203;48.428;11.974;2023-02-14T06:55:40;98656.25;;;6.95;46.80
61324;BME280;47203;48.428;11.974;2023-02-14T06:57:44;98660.66;;;6.95;46.81
61324;BME280;47203;48.428;11.974;2023-02-14T06:59:52;98660.25;;;6.91;47.05
61324;BME280;47203;48.428;11.974;2023-02-14T07:01:57;98653.97;;;6.86;47.20
61324;BME280;47203;48.428;11.974;2023-02-14T07:04:02;98654.09;;;6.77;47.02
61324;BME280;47203;48.428;11.974;2023-02-14T07:06:06;98662.31;;;6.68;47.39
61324;BME280;47203;48.428;11.974;2023-02-14T07:08:12;98651.59;;;6.62;47.46
61324;BME280;47203;48.428;11.974;2023-02-14T07:10:17;98647.13;;;6.56;47.59
61324;BME280;47203;48.428;11.974;2023-02-14T07:12:21;98648.31;;;6.54;47.55
61324;BME280;47203;48.428;11.974;2023-02-14T07:14:26;98645.69;;;6.54;47.71
61324;BME280;47203;48.428;11.974;2023-02-14T07:16:33;98649.50;;;6.51;47.37
61324;BME280;47203;48.428;11.974;2023-02-14T07:18:38;98641.22;;;6.47;47.46
61324;BME280;47203;48.428;11.974;2023-02-14T07:20:42;98647.22;;;6.41;47.44
61324;BME280;47203;48.428;11.974;2023-02-14T07:22:47;98646.78;;;6.38;47.63
61324;BME280;47203;48.428;11.974;2023-02-14T07:24:52;98644.78;;;6.40;47.50
61324;BME280;47203;48.428;11.974;2023-02-14T07:26:56;98642.78;;;6.42;47.68
61324;BME280;47203;48.428;11.974;2023-02-14T07:29:01;98637.56;;;6.42;47.70
61324;BME280;47203;48.428;11.974;2023-02-14T07:31:05;98639.75;;;6.38;47.59
61324;BME280;47203;48.428;11.974;2023-02-14T07:33:12;98644.53;;;6.35;47.58
61324;BME280;47203;48.428;11.974;2023-02-14T07:35:17;98641.94;;;6.35;47.70
61324;BME280;47203;48.428;11.974;2023-02-14T07:37:22;98639.13;;;6.36;47.71
61324;BME280;47203;48.428;11.974;2023-02-14T07:39:26;98643.38;;;6.37;47.69
61324;BME280;47203;48.428;11.974;2023-02-14T07:41:31;98635.31;;;6.39;47.59
61324;BME280;47203;48.428;11.974;2023-02-14T07:43:35;98634.91;;;6.35;47.59
61324;BME280;47203;48.428;11.974;2023-02-14T07:45:40;98633.28;;;6.34;47.56
61324;BME280;47203;48.428;11.974;2023-02-14T07:47:46;98634.72;;;6.37;47.71
61324;BME280;47203;48.428;11.974;2023-02-14T07:49:53;98630.69;;;6.41;47.58
61324;BME280;47203;48.428;11.974;2023-02-14T07:51:57;98639.19;;;6.43;47.53
61324;BME280;47203;48.428;11.974;2023-02-14T07:54:02;98632.31;;;6.42;47.59
61324;BME280;47203;48.428;11.974;2023-02-14T07:56:07;98627.72;;;6.44;47.50
61324;BME280;47203;48.428;11.974;2023-02-14T07:58:11;98636.78;;;6.48;47.71
61324;BME280;47203;48.428;11.974;2023-02-14T08:00:16;98632.22;;;6.57;47.62
61324;BME280;47203;48.428;11.974;2023-02-14T08:02:21;98636.34;;;6.66;47.32
61324;BME280;47203;48.428;11.974;2023-02-14T08:04:25;98637.38;;;6.72;47.04
61324;BME280;47203;48.428;11.974;2023-02-14T08:06:35;98635.78;;;6.77;47.15
61324;BME280;47203;48.428;11.974;2023-02-14T08:08:40;98628.78;;;6.85;47.21
61324;BME280;47203;48.428;11.974;2023-02-14T08:10:45;98630.84;;;6.89;46.72
61324;BME280;47203;48.428;11.974;2023-02-14T08:12:49;98630.44;;;6.92;47.02
61324;BME280;47203;48.428;11.974;2023-02-14T08:15:00;98625.03;;;6.94;46.76
61324;BME280;47203;48.428;11.974;2023-02-14T08:17:17;98629.22;;;6.95;46.73
61324;BME280;47203;48.428;11.974;2023-02-14T08:19:22;98630.66;;;6.97;46.95
61324;BME280;47203;48.428;11.974;2023-02-14T08:21:27;98625.22;;;6.99;46.55
61324;BME280;47203;48.428;11.974;2023-02-14T08:23:34;98622.59;;;6.92;46.67
61324;BME280;47203;48.428;11.974;2023-02-14T08:25:40;98617.13;;;6.87;46.89
61324;BME280;47203;48.428;11.974;2023-02-14T08:27:45;98615.69;;;6.85;46.89
61324;BME280;47203;48.428;11.974;2023-02-14T08:29:50;98619.72;;;6.80;47.12
61324;BME280;47203;48.428;11.974;2023-02-14T08:31:54;98621.69;;;6.72;47.26
61324;BME280;47203;48.428;11.974;2023-02-14T08:34:01;98621.03;;;6.63;46.99
61324;BME280;47203;48.428;11.974;2023-02-14T08:36:05;98620.78;;;6.58;47.37
61324;BME280;47203;48.428;11.974;2023-02-14T08:38:10;98615.13;;;6.54;47.22
61324;BME280;47203;48.428;11.974;2023-02-14T08:40:17;98620.34;;;6.54;47.48
61324;BME280;47203;48.428;11.974;2023-02-14T08:42:22;98614.06;;;6.49;47.28
61324;BME280;47203;48.428;11.974;2023-02-14T08:44:26;98623.50;;;6.43;47.52
61324;BME280;47203;48.428;11.974;2023-02-14T08:46:31;98622.63;;;6.36;47.67
61324;BME280;47203;48.428;11.974;2023-02-14T08:48:37;98623.41;;;6.29;47.58
61324;BME280;47203;48.428;11.974;2023-02-14T08:50:41;98620.91;;;6.21;47.62
61324;BME280;47203;48.428;11.974;2023-02-14T08:52:46;98625.06;;;6.16;47.98
61324;BME280;47203;48.428;11.974;2023-02-14T08:54:50;98628.88;;;6.13;47.98
61324;BME280;47203;48.428;11.974;2023-02-14T08:56:58;98631.88;;;6.10;47.81
61324;BME280;47203;48.428;11.974;2023-02-14T08:59:04;98621.97;;;6.05;47.79
61324;BME280;47203;48.428;11.974;2023-02-14T09:01:09;98626.59;;;6.03;48.03
61324;BME280;47203;48.428;11.974;2023-02-14T09:03:14;98629.78;;;5.99;48.07
61324;BME280;47203;48.428;11.974;2023-02-14T09:05:18;98636.78;;;5.98;48.16
61324;BME280;47203;48.428;11.974;2023-02-14T09:07:23;98628.75;;;6.00;48.18
61324;BME280;47203;48.428;11.974;2023-02-14T09:09:28;98637.25;;;6.02;48.14
61324;BME280;47203;48.428;11.974;2023-02-14T09:11:34;98627.19;;;6.05;48.13
61324;BME280;47203;48.428;11.974;2023-02-14T09:13:41;98624.41;;;6.07;48.02
61324;BME280;47203;48.428;11.974;2023-02-14T09:15:46;98631.69;;;6.11;48.07
61324;BME280;47203;48.428;11.974;2023-02-14T09:17:50;98632.53;;;6.19;48.01
61324;BME280;47203;48.428;11.974;2023-02-14T09:19:55;98632.22;;;6.28;47.93
61324;BME280;47203;48.428;11.974;2023-02-14T09:22:03;98631.09;;;6.38;47.53
61324;BME280;47203;48.428;11.974;2023-02-14T09:24:10;98628.34;;;6.46;47.71
61324;BME280;47203;48.428;11.974;2023-02-14T09:26:15;98634.44;;;6.53;47.41
61324;BME280;47203;48.428;11.974;2023-02-14T09:28:20;98630.44;;;6.57;47.63
61324;BME280;47203;48.428;11.974;2023-02-14T09:30:27;98636.91;;;6.61;47.42
61324;BME280;47203;48.428;11.974;2023-02-14T09:32:31;98637.13;;;6.67;47.54
61324;BME280;47203;48.428;11.974;2023-02-14T09:34:36;98637.19;;;6.73;47.40
61324;BME280;47203;48.428;11.974;2023-02-14T09:36:41;98637.41;;;6.78;47.28
61324;BME280;47203;48.428;11.974;2023-02-14T09:38:44;98636.22;;;6.81;47.24
61324;BME280;47203;48.428;11.974;2023-02-14T09:40:48;98639.59;;;6.75;47.41
61324;BME280;47203;48.428;11.974;2023-02-14T09:42:58;98631.09;;;6.66;47.40
61324;BME280;47203;48.428;11.974;2023-02-14T09:45:07;98634.28;;;6.61;47.43
61324;BME280;47203;48.428;11.974;2023-02-14T09:47:18;98632.66;;;6.60;47.42
61324;BME280;47203;48.428;11.974;2023-02-14T09:49:27;98627.44;;;6.60;47.58
61324;BME280;47203;48.428;11.974;2023-02-14T09:51:34;98624.00;;;6.60;47.70
61324;BME280;47203;48.428;11.974;2023-02-14T09:53:43;98628.63;;;6.58;47.69
61324;BME280;47203;48.428;11.974;2023-02-14T09:55:50;98627.63;;;6.59;47.53
61324;BME280;47203;48.428;11.974;2023-02-14T09:58:00;98624.81;;;6.60;47.51
61324;BME280;47203;48.428;11.974;2023-02-14T10:00:12;98620.00;;;6.64;47.48
61324;BME280;47203;48.428;11.974;2023-02-14T10:02:27;98616.00;;;6.68;47.56
61324;BME280;47203;48.428;11.974;2023-02-14T10:04:35;98623.06;;;6.74;47.67
61324;BME280;47203;48.428;11.974;2023-02-14T10:06:44;98622.50;;;6.79;47.38
61324;BME280;47203;48.428;11.974;2023-02-14T10:08:54;98622.75;;;6.84;47.35
61324;BME280;47203;48.428;11.974;2023-02-14T10:11:02;98621.97;;;6.90;47.57
61324;BME280;47203;48.428;11.974;2023-02-14T10:13:09;98624.63;;;6.97;47.21
61324;BME280;47203;48.428;11.974;2023-02-14T10:15:18;98627.06;;;7.05;47.36
61324;BME280;47203;48.428;11.974;2023-02-14T10:17:27;98622.31;;;7.15;47.13
61324;BME280;47203;48.428;11.974;2023-02-14T10:19:36;98625.56;;;7.24;46.77
61324;BME280;47203;48.428;11.974;2023-02-14T10:21:42;98621.13;;;7.31;46.50
61324;BME280;47203;48.428;11.974;2023-02-14T10:23:49;98624.00;;;7.37;46.47
61324;BME280;47203;48.428;11.974;2023-02-14T10:25:55;98621.59;;;7.42;46.50
61324;BME280;47203;48.428;11.974;2023-02-14T10:28:02;98625.22;;;7.47;46.26
61324;BME280;47203;48.428;11.974;2023-02-14T10:30:10;98622.59;;;7.47;46.36
61324;BME280;47203;48.428;11.974;2023-02-14T10:32:17;98614.75;;;7.47;46.33
61324;BME280;47203;48.428;11.974;2023-02-14T10:34:28;98617.38;;;7.47;46.35
61324;BME280;47203;48.428;11.974;2023-02-14T10:36:40;98621.00;;;7.46;46.66
61324;BME280;47203;48.428;11.974;2023-02-14T10:38:48;98622.00;;;7.45;46.35
61324;BME280;47203;48.428;11.974;2023-02-14T10:41:04;98615.13;;;7.44;46.70
61324;BME280;47203;48.428;11.974;2023-02-14T10:43:15;98616.16;;;7.43;46.85
61324;BME280;47203;48.428;11.974;2023-02-14T10:45:25;98610.72;;;7.45;46.75
61324;BME280;47203;48.428;11.974;2023-02-14T10:47:36;98607.91;;;7.46;46.76
61324;BME280;47203;48.428;11.974;2023-02-14T10:49:45;98604.47;;;7.46;46.90
61324;BME280;47203;48.428;11.974;2023-02-14T10:51:54;98600.84;;;7.47;46.54
61324;BME280;47203;48.428;11.974;2023-02-14T10:54:16;98597.22;;;7.48;46.89
61324;BME280;47203;48.428;11.974;2023-02-14T10:56:22;98596.81;;;7.51;46.78
61324;BME280;47203;48.428;11.974;2023-02-14T10:58:31;98586.16;;;7.53;46.99
61324;BME280;47203;48.428;11.974;2023-02-14T11:00:38;98586.53;;;7.56;46.98
61324;BME280;47203;48.428;11.974;2023-02-14T11:02:45;98591.38;;;7.59;46.58
61324;BME280;47203;48.428;11.974;2023-02-14T11:04:53;98580.09;;;7.59;46.79
61324;BME280;47203;48.428;11.974;2023-02-14T11:06:58;98577.50;;;7.59;46.97
61324;BME280;47203;48.428;11.974;2023-02-14T11:09:03;98574.06;;;7.58;46.92
61324;BME280;47203;48.428;11.974;2023-02-14T11:11:10;98564.38;;;7.59;46.71
61324;BME280;47203;48.428;11.974;2023-02-14T11:15:43;98567.41;;;7.56;46.99
61324;BME280;47203;48.428;11.974;2023-02-14T11:18:06;98567.22;;;7.50;46.86
61324;BME280;47203;48.428;11.974;2023-02-14T11:20:25;98565.34;;;7.44;46.83
61324;BME280;47203;48.428;11.974;2023-02-14T11:22:32;98570.19;;;7.41;47.00
61324;BME280;47203;48.428;11.974;2023-02-14T11:24:38;98563.13;;;7.41;47.37
61324;BME280;47203;48.428;11.974;2023-02-14T11:26:44;98555.91;;;7.43;47.25
61324;BME280;47203;48.428;11.974;2023-02-14T11:28:51;98558.13;;;7.46;47.00